createdAt,value
2018-06-16T00:00:11.249Z,17.77
2018-06-16T00:01:12.637Z,17.71
2018-06-16T00:02:14.026Z,17.73
2018-06-16T00:03:15.413Z,17.86
2018-06-16T00:04:16.800Z,17.81
2018-06-16T00:05:18.197Z,17.74
2018-06-16T00:06:19.584Z,17.70
2018-06-16T00:07:20.978Z,17.73
2018-06-16T00:08:22.365Z,17.71
2018-06-16T00:09:23.746Z,17.73
2018-06-16T00:10:25.141Z,17.71
2018-06-16T00:11:26.532Z,17.79
2018-06-16T00:12:27.906Z,17.77
2018-06-16T00:13:29.301Z,17.74
2018-06-16T00:14:30.679Z,17.77
2018-06-16T00:15:32.060Z,17.71
2018-06-16T00:16:33.460Z,17.86
2018-06-16T00:17:34.858Z,17.79
2018-06-16T00:18:36.247Z,17.80
2018-06-16T00:19:37.640Z,17.84
2018-06-16T00:20:39.019Z,17.79
2018-06-16T00:21:40.405Z,17.81
2018-06-16T00:22:41.792Z,17.76
2018-06-16T00:23:43.172Z,17.83
2018-06-16T00:24:44.557Z,17.80
2018-06-16T00:25:45.941Z,17.79
2018-06-16T00:26:47.331Z,17.81
2018-06-16T00:27:48.718Z,17.86
2018-06-16T00:28:50.102Z,17.83
2018-06-16T00:29:51.489Z,17.87
2018-06-16T00:30:52.879Z,17.89
2018-06-16T00:31:54.260Z,17.83
2018-06-16T00:32:55.645Z,17.83
2018-06-16T00:33:57.039Z,17.87
2018-06-16T00:34:58.417Z,17.79
2018-06-16T00:35:59.799Z,17.80
2018-06-16T00:37:01.191Z,17.80
2018-06-16T00:38:02.577Z,17.84
2018-06-16T00:39:03.968Z,17.84
2018-06-16T00:40:05.351Z,17.92
2018-06-16T00:41:06.732Z,17.89
2018-06-16T00:42:08.115Z,17.91
2018-06-16T00:43:09.513Z,17.87
2018-06-16T00:44:10.897Z,17.83
2018-06-16T00:45:12.288Z,17.89
2018-06-16T00:46:13.670Z,17.86
2018-06-16T00:47:15.063Z,17.81
2018-06-16T00:48:16.450Z,17.81
2018-06-16T00:49:17.832Z,17.89
2018-06-16T00:50:19.224Z,17.84
2018-06-16T00:51:20.612Z,17.86
2018-06-16T00:52:22.009Z,17.83
2018-06-16T00:53:23.389Z,17.83
2018-06-16T00:54:24.783Z,17.79
2018-06-16T00:55:26.164Z,17.83
2018-06-16T00:56:27.555Z,17.87
2018-06-16T00:57:28.945Z,17.83
2018-06-16T00:58:30.339Z,17.84
2018-06-16T00:59:31.723Z,17.70
2018-06-16T01:00:33.121Z,17.76
2018-06-16T01:01:34.507Z,17.66
2018-06-16T01:02:35.908Z,17.76
2018-06-16T01:03:37.285Z,17.71
2018-06-16T01:04:38.673Z,17.81
2018-06-16T01:05:40.624Z,17.76
2018-06-16T01:06:42.011Z,17.76
2018-06-16T01:07:43.403Z,17.74
2018-06-16T01:08:44.786Z,17.84
2018-06-16T01:09:46.174Z,17.74
2018-06-16T01:10:47.557Z,17.73
2018-06-16T01:11:48.948Z,17.74
2018-06-16T01:12:50.334Z,17.74
2018-06-16T01:13:51.710Z,17.79
2018-06-16T01:14:53.097Z,17.71
2018-06-16T01:15:54.488Z,17.79
2018-06-16T01:16:55.876Z,17.73
2018-06-16T01:17:57.254Z,17.76
2018-06-16T01:18:58.644Z,17.74
2018-06-16T01:20:00.040Z,17.70
2018-06-16T01:21:01.417Z,17.80
2018-06-16T01:22:02.811Z,17.81
2018-06-16T01:23:04.189Z,17.66
2018-06-16T01:24:05.582Z,17.70
2018-06-16T01:25:06.967Z,17.68
2018-06-16T01:26:08.355Z,17.71
2018-06-16T01:27:09.749Z,17.73
2018-06-16T01:28:11.131Z,17.73
2018-06-16T01:29:12.513Z,17.66
2018-06-16T01:30:13.909Z,17.68
2018-06-16T01:31:15.285Z,17.60
2018-06-16T01:32:16.668Z,17.68
2018-06-16T01:33:18.055Z,17.66
2018-06-16T01:34:19.451Z,17.66
2018-06-16T01:35:20.830Z,17.70
2018-06-16T01:36:22.218Z,17.70
2018-06-16T01:37:23.607Z,17.70
2018-06-16T01:38:24.991Z,17.66
2018-06-16T01:39:26.374Z,17.74
2018-06-16T01:40:27.764Z,17.66
2018-06-16T01:41:29.151Z,17.73
2018-06-16T01:42:30.539Z,17.66
2018-06-16T01:43:31.927Z,17.57
2018-06-16T01:44:34.024Z,17.62
2018-06-16T01:45:35.407Z,17.65
2018-06-16T01:46:36.792Z,17.54
2018-06-16T01:47:38.181Z,17.57
2018-06-16T01:48:39.565Z,17.51
2018-06-16T01:49:40.937Z,17.47
2018-06-16T01:50:42.327Z,17.55
2018-06-16T01:51:43.712Z,17.53
2018-06-16T01:52:45.100Z,17.53
2018-06-16T01:53:46.487Z,17.54
2018-06-16T01:54:47.874Z,17.55
2018-06-16T01:55:49.257Z,17.51
2018-06-16T01:56:50.646Z,17.53
2018-06-16T01:57:52.038Z,17.54
2018-06-16T01:58:53.426Z,17.57
2018-06-16T01:59:54.807Z,17.60
2018-06-16T02:00:56.190Z,17.55
2018-06-16T02:01:57.582Z,17.57
2018-06-16T02:02:58.971Z,17.58
2018-06-16T02:04:00.353Z,17.53
2018-06-16T02:05:01.744Z,17.53
2018-06-16T02:06:03.127Z,17.63
2018-06-16T02:07:04.510Z,17.63
2018-06-16T02:08:05.904Z,17.68
2018-06-16T02:09:07.294Z,17.55
2018-06-16T02:10:08.682Z,17.49
2018-06-16T02:11:10.073Z,17.54
2018-06-16T02:12:11.463Z,17.53
2018-06-16T02:13:12.843Z,17.54
2018-06-16T02:14:14.235Z,17.55
2018-06-16T02:15:15.625Z,17.53
2018-06-16T02:16:17.006Z,17.49
2018-06-16T02:17:18.386Z,17.51
2018-06-16T02:18:19.775Z,17.65
2018-06-16T02:19:21.167Z,17.53
2018-06-16T02:20:22.541Z,17.55
2018-06-16T02:21:23.930Z,17.55
2018-06-16T02:22:25.314Z,17.49
2018-06-16T02:23:26.698Z,17.51
2018-06-16T02:24:28.084Z,17.55
2018-06-16T02:25:29.472Z,17.55
2018-06-16T02:26:30.854Z,17.53
2018-06-16T02:27:32.240Z,17.54
2018-06-16T02:28:33.628Z,17.57
2018-06-16T02:29:35.016Z,17.54
2018-06-16T02:30:36.400Z,17.51
2018-06-16T02:31:37.783Z,17.45
2018-06-16T02:32:39.172Z,17.47
2018-06-16T02:33:40.553Z,17.45
2018-06-16T02:34:41.943Z,17.47
2018-06-16T02:35:43.333Z,17.40
2018-06-16T02:36:44.725Z,17.39
2018-06-16T02:37:46.115Z,17.38
2018-06-16T02:38:47.496Z,17.36
2018-06-16T02:39:48.888Z,17.38
2018-06-16T02:40:50.265Z,17.42
2018-06-16T02:41:51.657Z,17.36
2018-06-16T02:42:53.048Z,17.38
2018-06-16T02:43:54.429Z,17.36
2018-06-16T02:44:55.814Z,17.30
2018-06-16T02:45:57.201Z,17.33
2018-06-16T02:46:58.589Z,17.35
2018-06-16T02:47:59.977Z,17.32
2018-06-16T02:49:01.361Z,17.40
2018-06-16T02:50:02.805Z,17.33
2018-06-16T02:51:04.152Z,17.35
2018-06-16T02:52:05.543Z,17.40
2018-06-16T02:53:06.943Z,17.35
2018-06-16T02:54:08.308Z,17.27
2018-06-16T02:55:09.694Z,17.32
2018-06-16T02:56:11.074Z,17.35
2018-06-16T02:57:12.464Z,17.27
2018-06-16T02:58:13.846Z,17.40
2018-06-16T02:59:15.235Z,17.36
2018-06-16T03:00:16.621Z,17.27
2018-06-16T03:01:18.007Z,17.24
2018-06-16T03:02:19.400Z,17.30
2018-06-16T03:03:20.841Z,17.28
2018-06-16T03:04:22.178Z,17.25
2018-06-16T03:05:23.564Z,17.24
2018-06-16T03:06:25.360Z,17.27
2018-06-16T03:07:26.741Z,17.30
2018-06-16T03:08:28.131Z,17.28
2018-06-16T03:09:29.519Z,17.28
2018-06-16T03:10:30.907Z,17.28
2018-06-16T03:11:32.299Z,17.32
2018-06-16T03:12:33.685Z,17.24
2018-06-16T03:13:35.075Z,17.27
2018-06-16T03:14:36.464Z,17.24
2018-06-16T03:15:38.812Z,17.21
2018-06-16T03:16:40.212Z,17.33
2018-06-16T03:17:41.599Z,17.28
2018-06-16T03:18:42.991Z,17.24
2018-06-16T03:19:44.367Z,17.30
2018-06-16T03:20:45.764Z,17.30
2018-06-16T03:21:47.143Z,17.35
2018-06-16T03:22:48.533Z,17.33
2018-06-16T03:23:49.919Z,17.33
2018-06-16T03:24:51.314Z,17.35
2018-06-16T03:25:52.698Z,17.39
2018-06-16T03:26:54.088Z,17.38
2018-06-16T03:27:55.478Z,17.43
2018-06-16T03:28:56.860Z,17.35
2018-06-16T03:29:58.252Z,17.39
2018-06-16T03:30:59.643Z,17.35
2018-06-16T03:32:01.038Z,17.36
2018-06-16T03:33:02.437Z,17.36
2018-06-16T03:34:04.743Z,17.38
2018-06-16T03:35:06.135Z,17.36
2018-06-16T03:36:08.082Z,17.33
2018-06-16T03:37:09.462Z,17.35
2018-06-16T03:38:10.855Z,17.32
2018-06-16T03:39:12.249Z,17.36
2018-06-16T03:40:13.636Z,17.36
2018-06-16T03:41:15.032Z,17.42
2018-06-16T03:42:16.424Z,17.42
2018-06-16T03:43:17.816Z,17.46
2018-06-16T03:44:19.205Z,17.42
2018-06-16T03:45:20.590Z,17.45
2018-06-16T03:46:21.985Z,17.43
2018-06-16T03:47:23.369Z,17.53
2018-06-16T03:48:24.764Z,17.47
2018-06-16T03:49:26.153Z,17.55
2018-06-16T03:50:27.537Z,17.47
2018-06-16T03:51:28.927Z,17.49
2018-06-16T03:52:30.320Z,17.51
2018-06-16T03:53:31.708Z,17.46
2018-06-16T03:54:33.096Z,17.53
2018-06-16T03:55:34.478Z,17.49
2018-06-16T03:56:35.878Z,17.54
2018-06-16T03:57:37.260Z,17.54
2018-06-16T03:58:38.660Z,17.58
2018-06-16T03:59:40.059Z,17.54
2018-06-16T04:00:41.450Z,17.53
2018-06-16T04:01:42.846Z,17.55
2018-06-16T04:02:44.239Z,17.66
2018-06-16T04:03:45.626Z,17.51
2018-06-16T04:04:47.018Z,17.62
2018-06-16T04:05:48.413Z,17.51
2018-06-16T04:06:49.801Z,17.66
2018-06-16T04:07:51.189Z,17.60
2018-06-16T04:08:52.578Z,17.76
2018-06-16T04:09:53.965Z,17.63
2018-06-16T04:10:55.348Z,17.63
2018-06-16T04:11:56.743Z,17.65
2018-06-16T04:12:58.133Z,17.66
2018-06-16T04:13:59.527Z,17.76
2018-06-16T04:15:00.920Z,17.71
2018-06-16T04:16:02.308Z,17.66
2018-06-16T04:17:03.700Z,17.73
2018-06-16T04:18:06.007Z,17.80
2018-06-16T04:19:07.392Z,17.86
2018-06-16T04:20:08.789Z,17.84
2018-06-16T04:21:10.181Z,17.83
2018-06-16T04:22:11.577Z,18.02
2018-06-16T04:23:12.968Z,17.99
2018-06-16T04:24:14.363Z,18.05
2018-06-16T04:25:15.765Z,18.04
2018-06-16T04:26:17.151Z,18.13
2018-06-16T04:27:18.550Z,18.11
2018-06-16T04:28:19.934Z,18.09
2018-06-16T04:29:21.335Z,18.14
2018-06-16T04:30:22.706Z,18.11
2018-06-16T04:31:24.105Z,18.26
2018-06-16T04:32:25.484Z,18.25
2018-06-16T04:33:26.879Z,18.19
2018-06-16T04:34:28.263Z,18.16
2018-06-16T04:35:29.666Z,18.35
2018-06-16T04:36:31.662Z,18.41
2018-06-16T04:37:33.044Z,18.46
2018-06-16T04:38:34.443Z,18.53
2018-06-16T04:39:35.830Z,18.54
2018-06-16T04:40:37.212Z,18.62
2018-06-16T04:41:38.614Z,18.71
2018-06-16T04:42:40.006Z,18.74
2018-06-16T04:43:41.397Z,18.76
2018-06-16T04:44:42.786Z,18.82
2018-06-16T04:45:44.241Z,18.97
2018-06-16T04:46:45.522Z,18.97
2018-06-16T04:47:46.920Z,19.12
2018-06-16T04:48:48.319Z,19.30
2018-06-16T04:49:49.715Z,19.42
2018-06-16T04:50:51.107Z,19.67
2018-06-16T04:51:52.498Z,19.90
2018-06-16T04:52:53.892Z,20.01
2018-06-16T04:53:55.278Z,19.95
2018-06-16T04:54:56.672Z,19.95
2018-06-16T04:55:58.072Z,20.02
2018-06-16T04:56:59.537Z,20.01
2018-06-16T04:58:00.850Z,20.04
2018-06-16T04:59:02.241Z,20.10
2018-06-16T05:00:03.630Z,20.10
2018-06-16T05:01:05.022Z,20.13
2018-06-16T05:02:06.413Z,20.07
2018-06-16T05:03:07.816Z,20.07
2018-06-16T05:04:09.235Z,20.15
2018-06-16T05:05:10.619Z,20.16
2018-06-16T05:06:12.009Z,20.20
2018-06-16T05:07:14.104Z,20.16
2018-06-16T05:08:15.495Z,20.08
2018-06-16T05:09:16.891Z,20.13
2018-06-16T05:10:18.292Z,20.05
2018-06-16T05:11:19.673Z,20.05
2018-06-16T05:12:21.061Z,20.08
2018-06-16T05:13:22.462Z,20.05
2018-06-16T05:14:24.578Z,20.08
2018-06-16T05:15:25.970Z,20.17
2018-06-16T05:16:27.370Z,20.19
2018-06-16T05:17:28.759Z,20.35
2018-06-16T05:18:30.150Z,20.66
2018-06-16T05:19:31.530Z,20.88
2018-06-16T05:20:32.932Z,20.98
2018-06-16T05:21:34.320Z,21.11
2018-06-16T05:22:35.706Z,21.19
2018-06-16T05:23:37.108Z,21.38
2018-06-16T05:24:38.515Z,21.26
2018-06-16T05:25:39.964Z,21.31
2018-06-16T05:26:41.324Z,21.51
2018-06-16T05:27:42.721Z,21.53
2018-06-16T05:28:44.129Z,21.71
2018-06-16T05:29:45.512Z,21.70
2018-06-16T05:30:46.908Z,21.89
2018-06-16T05:31:48.301Z,21.89
2018-06-16T05:32:49.707Z,21.86
2018-06-16T05:33:51.108Z,21.85
2018-06-16T05:34:53.146Z,21.89
2018-06-16T05:35:54.538Z,21.98
2018-06-16T05:36:55.931Z,22.14
2018-06-16T05:37:57.333Z,22.29
2018-06-16T05:38:58.739Z,22.48
2018-06-16T05:40:00.134Z,22.97
2018-06-16T05:41:01.528Z,23.63
2018-06-16T05:42:02.918Z,24.05
2018-06-16T05:43:04.316Z,24.52
2018-06-16T05:44:05.715Z,24.84
2018-06-16T05:45:07.111Z,24.77
2018-06-16T05:46:08.509Z,24.90
2018-06-16T05:47:09.902Z,25.02
2018-06-16T05:48:12.019Z,25.22
2018-06-16T05:49:13.415Z,25.39
2018-06-16T05:50:14.804Z,25.98
2018-06-16T05:51:16.207Z,26.34
2018-06-16T05:52:17.606Z,26.73
2018-06-16T05:53:19.022Z,26.86
2018-06-16T05:54:20.414Z,27.09
2018-06-16T05:55:21.816Z,27.15
2018-06-16T05:56:23.219Z,27.42
2018-06-16T05:57:24.613Z,27.30
2018-06-16T05:58:26.020Z,27.61
2018-06-16T05:59:27.418Z,27.76
2018-06-16T06:00:28.825Z,28.17
2018-06-16T06:01:30.229Z,28.51
2018-06-16T06:02:31.635Z,28.76
2018-06-16T06:03:33.050Z,28.85
2018-06-16T06:04:34.459Z,29.12
2018-06-16T06:05:35.859Z,29.00
2018-06-16T06:06:37.271Z,29.20
2018-06-16T06:07:38.669Z,28.98
2018-06-16T06:08:40.078Z,29.27
2018-06-16T06:09:42.319Z,29.47
2018-06-16T06:10:43.715Z,29.69
2018-06-16T06:11:45.127Z,29.71
2018-06-16T06:12:46.530Z,29.92
2018-06-16T06:13:47.948Z,29.85
2018-06-16T06:14:49.338Z,30.21
2018-06-16T06:15:50.806Z,30.45
2018-06-16T06:16:52.144Z,30.36
2018-06-16T06:17:53.554Z,30.26
2018-06-16T06:18:54.948Z,30.26
2018-06-16T06:19:56.378Z,30.38
2018-06-16T06:20:57.781Z,30.64
2018-06-16T06:21:59.188Z,30.56
2018-06-16T06:23:00.591Z,30.45
2018-06-16T06:24:02.005Z,30.45
2018-06-16T06:25:03.421Z,30.34
2018-06-16T06:26:04.819Z,30.44
2018-06-16T06:27:06.221Z,30.51
2018-06-16T06:28:07.637Z,30.82
2018-06-16T06:29:09.044Z,30.56
2018-06-16T06:30:10.465Z,30.40
2018-06-16T06:31:11.877Z,30.23
2018-06-16T06:32:13.285Z,30.06
2018-06-16T06:33:14.709Z,29.99
2018-06-16T06:34:16.103Z,29.88
2018-06-16T06:35:17.523Z,29.81
2018-06-16T06:36:18.936Z,29.94
2018-06-16T06:37:20.351Z,29.73
2018-06-16T06:38:21.762Z,29.60
2018-06-16T06:39:23.159Z,29.26
2018-06-16T06:40:24.568Z,29.03
2018-06-16T06:41:25.978Z,29.00
2018-06-16T06:42:27.392Z,28.92
2018-06-16T06:43:28.860Z,28.80
2018-06-16T06:44:30.218Z,28.98
2018-06-16T06:45:31.626Z,28.98
2018-06-16T06:46:33.033Z,29.02
2018-06-16T06:47:35.361Z,28.95
2018-06-16T06:48:36.788Z,29.12
2018-06-16T06:49:38.189Z,29.07
2018-06-16T06:50:39.597Z,28.94
2018-06-16T06:51:40.999Z,29.20
2018-06-16T06:52:42.410Z,29.36
2018-06-16T06:53:43.819Z,29.27
2018-06-16T06:54:45.225Z,29.23
2018-06-16T06:55:46.637Z,29.47
2018-06-16T06:56:48.055Z,29.32
2018-06-16T06:57:49.468Z,29.60
2018-06-16T06:58:50.869Z,29.23
2018-06-16T06:59:52.277Z,29.21
2018-06-16T07:00:53.692Z,29.12
2018-06-16T07:01:55.106Z,29.03
2018-06-16T07:02:56.514Z,28.98
2018-06-16T07:03:57.963Z,28.97
2018-06-16T07:05:00.132Z,28.87
2018-06-16T07:06:01.544Z,28.87
2018-06-16T07:07:02.946Z,29.20
2018-06-16T07:08:04.925Z,29.10
2018-06-16T07:09:06.334Z,29.23
2018-06-16T07:10:07.740Z,29.36
2018-06-16T07:11:09.148Z,29.44
2018-06-16T07:12:10.550Z,29.62
2018-06-16T07:13:11.964Z,29.62
2018-06-16T07:14:13.367Z,29.63
2018-06-16T07:15:14.775Z,29.41
2018-06-16T07:16:16.182Z,29.48
2018-06-16T07:17:17.594Z,29.12
2018-06-16T07:18:19.015Z,28.69
2018-06-16T07:19:20.421Z,28.20
2018-06-16T07:20:21.811Z,27.69
2018-06-16T07:21:23.220Z,27.35
2018-06-16T07:22:24.621Z,26.98
2018-06-16T07:23:26.019Z,26.78
2018-06-16T07:24:27.421Z,26.39
2018-06-16T07:25:28.845Z,26.04
2018-06-16T07:26:30.224Z,25.85
2018-06-16T07:27:31.638Z,25.67
2018-06-16T07:28:33.032Z,25.56
2018-06-16T07:29:34.445Z,25.60
2018-06-16T07:30:35.846Z,25.39
2018-06-16T07:31:37.242Z,25.22
2018-06-16T07:32:38.643Z,25.01
2018-06-16T07:33:40.053Z,24.98
2018-06-16T07:34:41.458Z,25.04
2018-06-16T07:35:42.858Z,25.24
2018-06-16T07:36:44.256Z,25.29
2018-06-16T07:37:45.649Z,25.19
2018-06-16T07:38:47.067Z,25.26
2018-06-16T07:39:48.450Z,25.26
2018-06-16T07:40:49.844Z,25.27
2018-06-16T07:41:51.250Z,25.23
2018-06-16T07:42:52.662Z,25.20
2018-06-16T07:43:54.076Z,25.14
2018-06-16T07:44:55.471Z,25.23
2018-06-16T07:45:56.863Z,25.29
2018-06-16T07:46:58.273Z,25.36
2018-06-16T07:47:59.673Z,25.30
2018-06-16T07:49:01.073Z,25.39
2018-06-16T07:50:02.472Z,25.34
2018-06-16T07:51:03.882Z,25.31
2018-06-16T07:52:06.112Z,25.31
2018-06-16T07:53:07.546Z,25.39
2018-06-16T07:54:08.921Z,25.41
2018-06-16T07:55:10.318Z,25.41
2018-06-16T07:56:11.711Z,25.36
2018-06-16T07:57:13.137Z,25.24
2018-06-16T07:58:14.517Z,25.16
2018-06-16T07:59:15.940Z,25.04
2018-06-16T08:00:17.348Z,25.02
2018-06-16T08:01:18.740Z,25.02
2018-06-16T08:02:20.133Z,25.11
2018-06-16T08:03:21.538Z,25.11
2018-06-16T08:04:22.932Z,25.23
2018-06-16T08:05:24.328Z,25.12
2018-06-16T08:06:25.731Z,25.20
2018-06-16T08:07:27.128Z,24.93
2018-06-16T08:08:28.531Z,24.87
2018-06-16T08:09:29.925Z,24.94
2018-06-16T08:10:31.323Z,24.80
2018-06-16T08:11:32.721Z,24.87
2018-06-16T08:12:34.121Z,24.80
2018-06-16T08:13:35.531Z,24.90
2018-06-16T08:14:36.918Z,24.98
2018-06-16T08:15:38.361Z,25.05
2018-06-16T08:16:39.727Z,25.19
2018-06-16T08:17:41.121Z,25.23
2018-06-16T08:18:42.532Z,25.23
2018-06-16T08:19:43.936Z,25.23
2018-06-16T08:20:45.336Z,25.14
2018-06-16T08:21:46.740Z,25.04
2018-06-16T08:22:48.139Z,24.99
2018-06-16T08:23:49.541Z,25.02
2018-06-16T08:24:50.943Z,25.14
2018-06-16T08:25:52.338Z,25.23
2018-06-16T08:26:53.736Z,25.31
2018-06-16T08:27:55.142Z,25.42
2018-06-16T08:28:56.538Z,25.39
2018-06-16T08:29:58.546Z,25.49
2018-06-16T08:30:59.267Z,25.48
2018-06-16T08:32:00.677Z,25.44
2018-06-16T08:33:02.067Z,25.44
2018-06-16T08:34:03.463Z,25.48
2018-06-16T08:35:04.873Z,25.42
2018-06-16T08:36:06.267Z,25.41
2018-06-16T08:37:07.671Z,25.49
2018-06-16T08:38:09.071Z,25.48
2018-06-16T08:39:10.473Z,25.51
2018-06-16T08:40:11.871Z,25.42
2018-06-16T08:41:13.282Z,25.30
2018-06-16T08:42:14.691Z,25.39
2018-06-16T08:43:16.105Z,25.45
2018-06-16T08:44:17.488Z,25.53
2018-06-16T08:45:18.885Z,25.41
2018-06-16T08:46:20.291Z,25.46
2018-06-16T08:47:21.684Z,25.34
2018-06-16T08:48:23.085Z,25.35
2018-06-16T08:49:24.475Z,25.24
2018-06-16T08:50:25.877Z,25.19
2018-06-16T08:51:27.278Z,25.14
2018-06-16T08:52:28.678Z,25.02
2018-06-16T08:53:30.082Z,25.05
2018-06-16T08:54:31.482Z,25.07
2018-06-16T08:55:32.946Z,25.01
2018-06-16T08:56:34.284Z,25.02
2018-06-16T08:57:35.672Z,24.99
2018-06-16T08:58:37.077Z,24.97
2018-06-16T08:59:38.468Z,24.99
2018-06-16T09:00:39.869Z,24.98
2018-06-16T09:01:41.276Z,24.94
2018-06-16T09:02:42.666Z,24.94
2018-06-16T09:03:44.065Z,24.87
2018-06-16T09:04:45.467Z,24.82
2018-06-16T09:05:46.852Z,24.80
2018-06-16T09:06:48.254Z,24.82
2018-06-16T09:07:49.649Z,24.82
2018-06-16T09:08:51.050Z,24.87
2018-06-16T09:09:52.449Z,24.77
2018-06-16T09:10:53.853Z,24.77
2018-06-16T09:11:55.240Z,24.66
2018-06-16T09:12:56.645Z,24.61
2018-06-16T09:13:58.051Z,24.68
2018-06-16T09:14:59.443Z,24.71
2018-06-16T09:16:00.841Z,24.66
2018-06-16T09:17:02.259Z,24.53
2018-06-16T09:18:03.668Z,24.48
2018-06-16T09:19:05.065Z,24.45
2018-06-16T09:20:06.458Z,24.49
2018-06-16T09:21:07.864Z,24.39
2018-06-16T09:22:09.263Z,24.44
2018-06-16T09:23:10.644Z,24.42
2018-06-16T09:24:12.055Z,24.41
2018-06-16T09:25:13.443Z,24.26
2018-06-16T09:26:14.833Z,24.33
2018-06-16T09:27:16.228Z,24.30
2018-06-16T09:28:17.624Z,24.26
2018-06-16T09:29:19.028Z,24.09
2018-06-16T09:30:20.430Z,24.05
2018-06-16T09:31:21.830Z,24.02
2018-06-16T09:32:23.229Z,23.97
2018-06-16T09:33:24.630Z,23.96
2018-06-16T09:34:26.030Z,23.99
2018-06-16T09:35:27.419Z,24.09
2018-06-16T09:36:28.821Z,24.09
2018-06-16T09:37:30.223Z,24.23
2018-06-16T09:38:31.623Z,24.44
2018-06-16T09:39:33.030Z,24.46
2018-06-16T09:40:34.417Z,24.59
2018-06-16T09:41:35.818Z,24.71
2018-06-16T09:42:37.220Z,24.82
2018-06-16T09:43:38.621Z,24.93
2018-06-16T09:44:40.015Z,25.04
2018-06-16T09:45:41.419Z,25.05
2018-06-16T09:46:42.827Z,25.17
2018-06-16T09:47:44.248Z,25.19
2018-06-16T09:48:45.661Z,25.35
2018-06-16T09:49:47.059Z,25.44
2018-06-16T09:50:48.461Z,25.46
2018-06-16T09:51:49.855Z,25.64
2018-06-16T09:52:51.260Z,25.69
2018-06-16T09:53:52.655Z,25.79
2018-06-16T09:54:54.051Z,25.76
2018-06-16T09:55:55.456Z,25.83
2018-06-16T09:56:56.852Z,25.76
2018-06-16T09:57:58.253Z,25.56
2018-06-16T09:58:59.644Z,25.59
2018-06-16T10:00:01.051Z,25.59
2018-06-16T10:01:02.450Z,25.67
2018-06-16T10:02:03.806Z,25.83
2018-06-16T10:03:05.210Z,25.66
2018-06-16T10:04:06.605Z,25.81
2018-06-16T10:05:08.010Z,25.71
2018-06-16T10:06:09.415Z,25.76
2018-06-16T10:07:10.796Z,25.69
2018-06-16T10:08:12.197Z,25.75
2018-06-16T10:09:13.597Z,25.67
2018-06-16T10:10:14.993Z,25.79
2018-06-16T10:11:16.400Z,25.79
2018-06-16T10:12:17.809Z,25.96
2018-06-16T10:13:19.209Z,26.03
2018-06-16T10:14:20.613Z,26.11
2018-06-16T10:15:22.012Z,26.23
2018-06-16T10:16:23.410Z,26.28
2018-06-16T10:17:24.808Z,26.20
2018-06-16T10:18:26.209Z,26.03
2018-06-16T10:19:27.608Z,26.12
2018-06-16T10:20:29.726Z,26.23
2018-06-16T10:21:31.132Z,26.13
2018-06-16T10:22:32.524Z,26.21
2018-06-16T10:23:33.948Z,26.16
2018-06-16T10:24:35.328Z,26.09
2018-06-16T10:25:36.732Z,26.06
2018-06-16T10:26:38.136Z,25.98
2018-06-16T10:27:39.543Z,25.91
2018-06-16T10:28:40.940Z,25.71
2018-06-16T10:29:42.334Z,25.67
2018-06-16T10:30:43.730Z,25.53
2018-06-16T10:31:45.132Z,25.53
2018-06-16T10:32:46.523Z,25.48
2018-06-16T10:33:47.936Z,25.45
2018-06-16T10:34:49.340Z,25.38
2018-06-16T10:35:50.733Z,25.42
2018-06-16T10:36:52.129Z,25.51
2018-06-16T10:37:53.535Z,25.48
2018-06-16T10:38:54.929Z,25.57
2018-06-16T10:39:56.347Z,25.61
2018-06-16T10:40:57.753Z,25.57
2018-06-16T10:41:59.146Z,25.57
2018-06-16T10:43:00.545Z,25.56
2018-06-16T10:44:01.965Z,25.59
2018-06-16T10:45:03.374Z,25.60
2018-06-16T10:46:04.759Z,25.57
2018-06-16T10:47:06.160Z,25.59
2018-06-16T10:48:07.692Z,25.69
2018-06-16T10:49:09.090Z,25.69
2018-06-16T10:50:10.482Z,25.67
2018-06-16T10:51:11.905Z,25.61
2018-06-16T10:52:13.292Z,25.69
2018-06-16T10:53:14.692Z,25.66
2018-06-16T10:54:16.098Z,25.72
2018-06-16T10:55:17.496Z,25.71
2018-06-16T10:56:18.906Z,25.66
2018-06-16T10:57:20.302Z,25.74
2018-06-16T10:58:21.702Z,25.74
2018-06-16T10:59:23.104Z,25.64
2018-06-16T11:00:24.515Z,25.67
2018-06-16T11:01:25.898Z,25.78
2018-06-16T11:02:27.290Z,25.81
2018-06-16T11:03:28.699Z,25.74
2018-06-16T11:04:30.089Z,25.76
2018-06-16T11:05:31.498Z,25.98
2018-06-16T11:06:32.889Z,25.98
2018-06-16T11:07:34.294Z,26.01
2018-06-16T11:08:35.690Z,25.90
2018-06-16T11:09:37.100Z,25.93
2018-06-16T11:10:38.496Z,25.93
2018-06-16T11:11:39.896Z,25.96
2018-06-16T11:12:41.293Z,25.86
2018-06-16T11:13:42.688Z,25.82
2018-06-16T11:14:44.083Z,25.90
2018-06-16T11:15:45.484Z,25.82
2018-06-16T11:16:46.876Z,25.79
2018-06-16T11:17:48.286Z,25.91
2018-06-16T11:18:49.686Z,25.83
2018-06-16T11:19:51.080Z,25.93
2018-06-16T11:20:52.468Z,26.12
2018-06-16T11:21:53.872Z,26.19
2018-06-16T11:22:55.271Z,26.36
2018-06-16T11:23:56.672Z,26.36
2018-06-16T11:24:58.061Z,26.50
2018-06-16T11:25:59.484Z,26.53
2018-06-16T11:27:00.879Z,26.46
2018-06-16T11:28:02.271Z,26.47
2018-06-16T11:29:03.669Z,26.36
2018-06-16T11:30:05.067Z,26.32
2018-06-16T11:31:06.475Z,26.36
2018-06-16T11:32:07.882Z,26.28
2018-06-16T11:33:09.278Z,26.28
2018-06-16T11:34:10.679Z,26.19
2018-06-16T11:35:12.823Z,26.08
2018-06-16T11:36:16.476Z,25.89
2018-06-16T11:37:18.692Z,25.71
2018-06-16T11:38:22.513Z,25.69
2018-06-16T11:39:23.919Z,25.57
2018-06-16T11:40:25.323Z,25.59
2018-06-16T11:41:26.724Z,25.67
2018-06-16T11:42:28.125Z,25.72
2018-06-16T11:43:29.522Z,25.91
2018-06-16T11:44:31.094Z,26.23
2018-06-16T11:45:32.484Z,26.42
2018-06-16T11:46:33.920Z,26.86
2018-06-16T11:47:36.544Z,27.11
2018-06-16T11:48:38.188Z,27.35
2018-06-16T11:49:39.559Z,27.58
2018-06-16T11:50:40.964Z,27.93
2018-06-16T11:51:42.768Z,28.20
2018-06-16T11:52:44.163Z,28.62
2018-06-16T11:53:45.557Z,28.74
2018-06-16T11:54:46.964Z,28.89
2018-06-16T11:55:48.362Z,28.97
2018-06-16T11:56:50.948Z,29.10
2018-06-16T11:57:53.271Z,29.12
2018-06-16T11:58:55.274Z,29.26
2018-06-16T11:59:57.921Z,29.49
2018-06-16T12:00:59.792Z,29.58
2018-06-16T12:02:02.291Z,29.99
2018-06-16T12:03:04.317Z,30.01
2018-06-16T12:04:06.252Z,30.26
2018-06-16T12:05:07.651Z,30.18
2018-06-16T12:06:09.139Z,30.44
2018-06-16T12:07:10.549Z,30.16
2018-06-16T12:08:13.536Z,30.22
2018-06-16T12:09:14.931Z,30.19
2018-06-16T12:10:16.340Z,30.42
2018-06-16T12:11:17.921Z,30.22
2018-06-16T12:12:20.440Z,30.19
2018-06-16T12:13:22.929Z,30.10
2018-06-16T12:14:24.336Z,30.15
2018-06-16T12:15:25.734Z,30.38
2018-06-16T12:16:27.911Z,30.46
2018-06-16T12:17:29.302Z,30.44
2018-06-16T12:18:30.714Z,30.64
2018-06-16T12:19:33.400Z,30.37
2018-06-16T12:20:34.800Z,30.08
2018-06-16T12:21:38.636Z,30.13
2018-06-16T12:22:40.037Z,30.21
2018-06-16T12:23:41.440Z,30.18
2018-06-16T12:24:42.866Z,30.04
2018-06-16T12:25:44.268Z,30.13
2018-06-16T12:26:45.671Z,30.07
2018-06-16T12:27:47.067Z,29.85
2018-06-16T12:28:48.466Z,29.51
2018-06-16T12:29:49.930Z,29.36
2018-06-16T12:30:51.232Z,29.00
2018-06-16T12:31:52.636Z,28.91
2018-06-16T12:32:54.060Z,29.17
2018-06-16T12:33:55.471Z,29.00
2018-06-16T12:34:56.866Z,28.85
2018-06-16T12:35:58.265Z,28.76
2018-06-16T12:36:59.667Z,28.91
2018-06-16T12:38:01.064Z,28.79
2018-06-16T12:39:02.452Z,29.02
2018-06-16T12:40:03.856Z,29.25
2018-06-16T12:41:05.255Z,29.42
2018-06-16T12:42:06.657Z,29.86
2018-06-16T12:43:08.056Z,30.10
2018-06-16T12:44:09.470Z,30.64
2018-06-16T12:45:10.852Z,30.60
2018-06-16T12:46:12.253Z,30.98
2018-06-16T12:47:13.646Z,30.78
2018-06-16T12:48:15.044Z,30.59
2018-06-16T12:49:16.440Z,30.34
2018-06-16T12:50:17.836Z,30.22
2018-06-16T12:51:20.135Z,29.70
2018-06-16T12:52:21.534Z,29.33
2018-06-16T12:53:22.950Z,29.00
2018-06-16T12:54:24.346Z,28.77
2018-06-16T12:55:25.753Z,28.55
2018-06-16T12:56:27.175Z,28.39
2018-06-16T12:57:28.614Z,28.36
2018-06-16T12:58:29.962Z,28.17
2018-06-16T12:59:31.361Z,28.15
2018-06-16T13:00:32.758Z,28.13
2018-06-16T13:01:34.166Z,28.17
2018-06-16T13:02:35.560Z,28.11
2018-06-16T13:03:36.970Z,28.06
2018-06-16T13:04:38.362Z,28.09
2018-06-16T13:05:39.769Z,28.01
2018-06-16T13:06:41.175Z,27.99
2018-06-16T13:07:42.573Z,27.91
2018-06-16T13:08:43.975Z,28.05
2018-06-16T13:09:46.063Z,27.96
2018-06-16T13:10:47.456Z,27.55